AUR39J EGJJ-EGJB

Flight info

Callsign AUR39J
Flight time 0h 8m
Altitude 2000
Route GUR
Aircraft AT76/M-SDFGIRY/S

Departure

Time 2026-05-03 22:30
Airport Jersey Airport (EGJJ)

Arrival

Time 2026-05-03 22:39
Airport Guernsey Airport (EGJB)
Time Latitude Longitude Altitude Speed Heading
2026-05-03 22:10 49.20550 -2.19806 280 ft 0 kts 174°
2026-05-03 22:20 49.20574 -2.19812 280 ft 4 kts 160°
2026-05-03 22:20 49.20597 -2.19831 280 ft 4 kts 130°
2026-05-03 22:20 49.20606 -2.19861 280 ft 1 kts 84°
2026-05-03 22:21 49.20605 -2.19862 280 ft 0 kts 83°
2026-05-03 22:23 49.20606 -2.19858 280 ft 2 kts 83°
2026-05-03 22:23 49.20609 -2.19807 280 ft 7 kts 84°
2026-05-03 22:24 49.20618 -2.19710 280 ft 10 kts 75°
2026-05-03 22:24 49.20672 -2.19638 280 ft 11 kts 43°
2026-05-03 22:24 49.20700 -2.19524 281 ft 13 kts 80°
2026-05-03 22:24 49.20708 -2.19384 281 ft 14 kts 95°
2026-05-03 22:25 49.20685 -2.19231 281 ft 15 kts 104°
2026-05-03 22:25 49.20686 -2.19070 281 ft 15 kts 83°
2026-05-03 22:25 49.20700 -2.18910 281 ft 15 kts 83°
2026-05-03 22:25 49.20714 -2.18748 280 ft 15 kts 82°
2026-05-03 22:26 49.20727 -2.18585 280 ft 16 kts 83°
2026-05-03 22:26 49.20754 -2.18435 281 ft 13 kts 44°
2026-05-03 22:26 49.20800 -2.18384 280 ft 0 kts 25°
2026-05-03 22:28 49.20806 -2.18381 280 ft 3 kts 17°
2026-05-03 22:29 49.20845 -2.18378 280 ft 8 kts 355°
2026-05-03 22:29 49.20893 -2.18425 278 ft 7 kts 263°
2026-05-03 22:29 49.20892 -2.18430 278 ft 0 kts 263°
2026-05-03 22:29 49.20880 -2.18583 279 ft 46 kts 263°
2026-05-03 22:30 49.20812 -2.19394 283 ft 106 kts 263°
2026-05-03 22:30 49.20715 -2.20639 636 ft 121 kts 265°
2026-05-03 22:30 49.20604 -2.21955 1230 ft 126 kts 262°
2026-05-03 22:30 49.20477 -2.23343 1719 ft 138 kts 262°
2026-05-03 22:31 49.20457 -2.24900 1848 ft 160 kts 287°
2026-05-03 22:31 49.21184 -2.26349 1923 ft 187 kts 313°
2026-05-03 22:31 49.22155 -2.27840 1938 ft 208 kts 314°
2026-05-03 22:31 49.23235 -2.29442 1955 ft 223 kts 315°
2026-05-03 22:32 49.24383 -2.31130 1958 ft 234 kts 314°
2026-05-03 22:32 49.25568 -2.32906 1958 ft 242 kts 314°
2026-05-03 22:32 49.26777 -2.34730 1958 ft 246 kts 314°
2026-05-03 22:32 49.28004 -2.36585 1963 ft 249 kts 314°
2026-05-03 22:33 49.29242 -2.38451 1963 ft 249 kts 315°
2026-05-03 22:33 49.30742 -2.39714 1953 ft 253 kts 347°
2026-05-03 22:33 49.32506 -2.39871 1957 ft 255 kts 359°
2026-05-03 22:33 49.34242 -2.39808 1964 ft 241 kts
2026-05-03 22:34 49.35869 -2.39704 1964 ft 228 kts
2026-05-03 22:34 49.37418 -2.39597 1966 ft 218 kts
2026-05-03 22:34 49.38911 -2.39486 1964 ft 212 kts
2026-05-03 22:34 49.40366 -2.39377 1965 ft 207 kts
2026-05-03 22:35 49.41787 -2.39282 1960 ft 202 kts 359°
2026-05-03 22:35 49.43097 -2.39795 1956 ft 193 kts 323°
2026-05-03 22:35 49.43922 -2.41344 1956 ft 187 kts 290°
2026-05-03 22:35 49.44001 -2.43270 1964 ft 177 kts 264°
2026-05-03 22:36 49.43907 -2.45131 1978 ft 173 kts 265°
2026-05-03 22:36 49.43847 -2.46971 1961 ft 172 kts 267°
2026-05-03 22:36 49.43806 -2.48805 1751 ft 168 kts 268°
2026-05-03 22:36 49.43762 -2.50514 1529 ft 152 kts 267°
2026-05-03 22:37 49.43714 -2.52078 1330 ft 139 kts 266°
2026-05-03 22:37 49.43675 -2.53434 1142 ft 117 kts 267°
2026-05-03 22:37 49.43640 -2.54646 1014 ft 112 kts 266°
2026-05-03 22:37 49.43602 -2.55867 849 ft 117 kts 268°
2026-05-03 22:38 49.43580 -2.57113 667 ft 114 kts 268°
2026-05-03 22:38 49.43545 -2.58304 502 ft 111 kts 266°
2026-05-03 22:38 49.43518 -2.59437 358 ft 106 kts 267°
2026-05-03 22:38 49.43490 -2.60459 307 ft 82 kts 267°
2026-05-03 22:39 49.43474 -2.61013 308 ft 40 kts 267°
2026-05-03 22:39 49.43467 -2.61278 312 ft 19 kts 268°
2026-05-03 22:39 49.43421 -2.61348 312 ft 10 kts 155°
2026-05-03 22:39 49.43365 -2.61257 310 ft 14 kts 119°
2026-05-03 22:40 49.43361 -2.61096 308 ft 17 kts 87°
2026-05-03 22:40 49.43362 -2.60911 303 ft 19 kts 99°
2026-05-03 22:40 49.43338 -2.60704 296 ft 20 kts 99°
2026-05-03 22:40 49.43327 -2.60493 289 ft 20 kts 88°
2026-05-03 22:41 49.43332 -2.60294 291 ft 17 kts 88°
2026-05-03 22:41 49.43337 -2.60130 301 ft 14 kts 87°
2026-05-03 22:41 49.43341 -2.59975 312 ft 12 kts 87°
2026-05-03 22:41 49.43344 -2.59857 320 ft 11 kts 87°
2026-05-03 22:42 49.43354 -2.59738 322 ft 13 kts 73°
2026-05-03 22:42 49.43344 -2.59627 324 ft 8 kts 157°
2026-05-03 22:42 49.43299 -2.59622 326 ft 7 kts 178°
2026-05-03 22:42 49.43255 -2.59620 325 ft 2 kts 179°
2026-05-03 22:43 49.43253 -2.59620 325 ft 0 kts 179°